associationcareernetwork.com alexa rank chart, associationcareernetwork.com alexa rank daily changes

associationcareernetwork.com alexa rank chart, associationcareernetwork.com alexa rank daily changes

associationcareernetwork.com
Actual rank:
161 679

RANK HISTORY

Date Rank Diff
2017/05/29 161 679 -2 525
2017/05/28 164 204 +26
2017/05/27 164 178 -721
2017/05/26 164 899 +1 065
2017/05/25 163 834 -272
2017/05/24 164 106 -3 155
2017/05/23 167 261 +2 049
2017/05/22 165 212 +5 862
2017/05/21 159 350 +5 827
2017/05/20 153 523 -1 335
2017/05/19 154 858 -8 028
2017/05/18 162 886 -369
2017/05/17 163 255 -6 239
2017/05/16 169 494 +4 841
2017/05/15 164 653 +1 483
2017/05/14 163 170 +4 568
2017/05/13 158 602 +1 512
2017/05/12 157 090 +3 555
2017/05/11 153 535 -4 564
2017/05/10 158 099 -1 101
2017/05/09 159 200 +1 312
2017/05/08 157 888 +2 231
2017/05/07 155 657 +6 370
2017/05/06 149 287 +2 617
2017/05/05 146 670 -600
2017/05/04 147 270 -1 429
2017/05/03 148 699 -4 241
2017/05/02 152 940 +1 334
2017/05/01 151 606 +6 441
2017/04/30 145 165 +2 239
2017/04/29 142 926 +2 195
2017/04/28 140 731 -1 812
2017/04/27 142 543 -1 208
2017/04/26 143 751 -3 413
2017/04/25 147 164 -639
2017/04/24 147 803 +2 049
2017/04/23 145 754 +1 753
2017/04/22 144 001 -603
2017/04/21 144 604 -7 124
2017/04/20 151 728 +8
2017/04/19 151 720 -1 278
2017/04/18 152 998 +1 523
2017/04/17 151 475 +8 605
2017/04/16 142 870 -500
2017/04/15 143 370 +4 341
2017/04/14 139 029 -3 108
2017/04/13 142 137 -975
2017/04/12 143 112 -4 772
2017/04/11 147 884 +914
2017/04/10 146 970 +440
2017/04/09 146 530 -1 641
2017/04/08 148 171 -1 370
2017/04/07 149 541 -7 885
2017/04/06 157 426 -4 537
2017/04/05 161 963 -5 794
2017/04/04 167 757 +2 062
2017/04/03 165 695 +8 217
2017/04/02 157 478 -1 570
2017/04/01 159 048 -2 863
2017/03/31 161 911 -3 719
2017/03/30 165 630

WIDGET FOR YOUR SITE

DOMAINS WITH THE NEAREST RANK

Domain Rank
theglobalist.com 161 674
beatnix.co.jp 161 675
hayscisd.net 161 676
goufanli100.com 161 677
spaceforupgrade.pw 161 678
associationcareernetwork.com 161 679
cqcqde.com 161 680
zse.hr 161 681
termene.ro 161 682
swiggy.in 161 683
coc.gov.cn 161 684

DOMAINS WITH THE NEAREST RANK BY TLD .com

Domain Rank
celibatairesduweb.com 161 670
dollarclix.com 161 671
autotask.com 161 673
theglobalist.com 161 674
goufanli100.com 161 677
associationcareernetwork.com 161 679
cqcqde.com 161 680
muvila.com 161 685
dailyprincetonian.com 161 686
d04b7831b4690.com 161 687
jafx.com 161 690